sensor_id;sensor_type;location;lat;lon;timestamp;pressure;altitude;pressure_sealevel;temperature;humidity
55916;BME280;41826;53.246;-6.670;2023-03-03T00:00:22;101928.22;;;5.16;100.00
55916;BME280;41826;53.246;-6.670;2023-03-03T00:02:47;101943.94;;;5.65;100.00
55916;BME280;41826;53.246;-6.670;2023-03-03T00:05:12;101936.13;;;5.65;100.00
55916;BME280;41826;53.246;-6.670;2023-03-03T00:07:43;101925.88;;;5.62;100.00
55916;BME280;41826;53.246;-6.670;2023-03-03T00:10:09;101916.50;;;5.58;100.00
55916;BME280;41826;53.246;-6.670;2023-03-03T00:12:48;101883.34;;;5.78;100.00
55916;BME280;41826;53.246;-6.670;2023-03-03T00:15:24;101864.06;;;5.64;100.00
55916;BME280;41826;53.246;-6.670;2023-03-03T00:17:51;101880.94;;;5.41;100.00
55916;BME280;41826;53.246;-6.670;2023-03-03T00:20:34;101876.03;;;5.69;100.00
55916;BME280;41826;53.246;-6.670;2023-03-03T00:23:19;101829.03;;;5.86;100.00
55916;BME280;41826;53.246;-6.670;2023-03-03T00:25:50;101757.28;;;5.96;100.00
55916;BME280;41826;53.246;-6.670;2023-03-03T00:28:32;101710.78;;;5.89;100.00
55916;BME280;41826;53.246;-6.670;2023-03-03T00:31:15;101667.41;;;5.88;100.00
55916;BME280;41826;53.246;-6.670;2023-03-03T00:33:50;101667.03;;;5.63;100.00
55916;BME280;41826;53.246;-6.670;2023-03-03T00:36:35;101659.09;;;5.81;100.00
55916;BME280;41826;53.246;-6.670;2023-03-03T00:41:50;101660.56;;;5.71;100.00
55916;BME280;41826;53.246;-6.670;2023-03-03T00:44:45;101657.44;;;5.80;100.00
55916;BME280;41826;53.246;-6.670;2023-03-03T00:49:45;101662.47;;;5.37;100.00
55916;BME280;41826;53.246;-6.670;2023-03-03T00:52:13;101781.59;;;5.00;100.00
55916;BME280;41826;53.246;-6.670;2023-03-03T00:54:40;101871.88;;;5.15;100.00
55916;BME280;41826;53.246;-6.670;2023-03-03T00:57:06;101901.94;;;5.38;100.00
55916;BME280;41826;53.246;-6.670;2023-03-03T00:59:31;101880.38;;;5.52;100.00
55916;BME280;41826;53.246;-6.670;2023-03-03T01:01:57;101873.16;;;5.57;100.00
55916;BME280;41826;53.246;-6.670;2023-03-03T01:04:22;101839.97;;;5.61;100.00
55916;BME280;41826;53.246;-6.670;2023-03-03T01:06:47;101830.72;;;5.55;100.00
55916;BME280;41826;53.246;-6.670;2023-03-03T01:09:14;101832.50;;;5.55;100.00
55916;BME280;41826;53.246;-6.670;2023-03-03T01:11:39;101851.50;;;5.24;100.00
55916;BME280;41826;53.246;-6.670;2023-03-03T01:14:05;101913.84;;;5.27;100.00
55916;BME280;41826;53.246;-6.670;2023-03-03T01:16:30;101950.41;;;5.24;100.00
55916;BME280;41826;53.246;-6.670;2023-03-03T01:18:56;101958.81;;;5.46;100.00
55916;BME280;41826;53.246;-6.670;2023-03-03T01:21:22;101904.75;;;5.67;100.00
55916;BME280;41826;53.246;-6.670;2023-03-03T01:23:47;101834.34;;;5.84;100.00
55916;BME280;41826;53.246;-6.670;2023-03-03T01:26:14;101750.28;;;5.97;100.00
55916;BME280;41826;53.246;-6.670;2023-03-03T01:28:39;101672.41;;;6.06;100.00
55916;BME280;41826;53.246;-6.670;2023-03-03T01:31:05;101611.34;;;6.25;100.00
55916;BME280;41826;53.246;-6.670;2023-03-03T01:33:31;101536.38;;;6.28;100.00
55916;BME280;41826;53.246;-6.670;2023-03-03T01:35:57;101490.00;;;6.19;100.00
55916;BME280;41826;53.246;-6.670;2023-03-03T01:38:23;101449.41;;;6.15;100.00
55916;BME280;41826;53.246;-6.670;2023-03-03T01:40:53;101415.09;;;6.08;100.00
55916;BME280;41826;53.246;-6.670;2023-03-03T01:43:19;101399.00;;;6.02;100.00
55916;BME280;41826;53.246;-6.670;2023-03-03T01:48:21;101380.19;;;6.11;100.00
55916;BME280;41826;53.246;-6.670;2023-03-03T01:53:52;101352.13;;;6.15;100.00
55916;BME280;41826;53.246;-6.670;2023-03-03T01:56:19;101343.09;;;6.20;100.00
55916;BME280;41826;53.246;-6.670;2023-03-03T01:58:51;101319.94;;;6.16;100.00
55916;BME280;41826;53.246;-6.670;2023-03-03T02:01:24;101302.56;;;6.02;100.00
55916;BME280;41826;53.246;-6.670;2023-03-03T02:03:50;101310.78;;;5.96;100.00
55916;BME280;41826;53.246;-6.670;2023-03-03T02:06:20;101329.28;;;5.91;100.00
55916;BME280;41826;53.246;-6.670;2023-03-03T02:09:03;101336.47;;;5.88;100.00
55916;BME280;41826;53.246;-6.670;2023-03-03T02:11:32;101401.06;;;5.54;100.00
55916;BME280;41826;53.246;-6.670;2023-03-03T02:13:59;101440.63;;;5.60;100.00
55916;BME280;41826;53.246;-6.670;2023-03-03T02:16:24;101438.84;;;5.75;100.00
55916;BME280;41826;53.246;-6.670;2023-03-03T02:18:49;101456.03;;;5.49;100.00
55916;BME280;41826;53.246;-6.670;2023-03-03T02:21:18;101508.34;;;5.60;100.00
55916;BME280;41826;53.246;-6.670;2023-03-03T02:24:12;101509.66;;;5.68;100.00
55916;BME280;41826;53.246;-6.670;2023-03-03T02:26:43;101498.66;;;5.77;100.00
55916;BME280;41826;53.246;-6.670;2023-03-03T02:29:10;101512.72;;;5.74;100.00
55916;BME280;41826;53.246;-6.670;2023-03-03T02:31:36;101541.81;;;5.52;100.00
55916;BME280;41826;53.246;-6.670;2023-03-03T02:34:02;101484.38;;;5.25;100.00
55916;BME280;41826;53.246;-6.670;2023-03-03T02:36:31;101324.84;;;5.37;100.00
55916;BME280;41826;53.246;-6.670;2023-03-03T02:39:26;101206.59;;;5.27;100.00
55916;BME280;41826;53.246;-6.670;2023-03-03T02:44:25;101187.06;;;5.34;100.00
55916;BME280;41826;53.246;-6.670;2023-03-03T02:46:52;101174.88;;;5.35;100.00
55916;BME280;41826;53.246;-6.670;2023-03-03T02:49:21;101233.66;;;5.25;100.00
55916;BME280;41826;53.246;-6.670;2023-03-03T02:51:47;101257.59;;;5.44;100.00
55916;BME280;41826;53.246;-6.670;2023-03-03T02:54:14;101276.53;;;5.60;100.00
55916;BME280;41826;53.246;-6.670;2023-03-03T02:56:40;101299.53;;;5.81;100.00
55916;BME280;41826;53.246;-6.670;2023-03-03T02:59:06;101310.97;;;5.93;100.00
55916;BME280;41826;53.246;-6.670;2023-03-03T03:01:33;101299.75;;;6.05;100.00
55916;BME280;41826;53.246;-6.670;2023-03-03T03:04:06;101289.97;;;6.08;100.00
55916;BME280;41826;53.246;-6.670;2023-03-03T03:06:32;101271.44;;;6.13;100.00
55916;BME280;41826;53.246;-6.670;2023-03-03T03:08:57;101263.72;;;6.12;100.00
55916;BME280;41826;53.246;-6.670;2023-03-03T03:11:24;101255.88;;;6.12;100.00
55916;BME280;41826;53.246;-6.670;2023-03-03T03:13:49;101234.94;;;6.00;100.00
55916;BME280;41826;53.246;-6.670;2023-03-03T03:16:16;101267.22;;;5.56;100.00
55916;BME280;41826;53.246;-6.670;2023-03-03T03:18:41;101291.09;;;5.77;100.00
55916;BME280;41826;53.246;-6.670;2023-03-03T03:21:08;101301.94;;;5.84;100.00
55916;BME280;41826;53.246;-6.670;2023-03-03T03:23:34;101310.31;;;5.89;100.00
55916;BME280;41826;53.246;-6.670;2023-03-03T03:26:00;101314.75;;;6.01;100.00
55916;BME280;41826;53.246;-6.670;2023-03-03T03:28:25;101300.53;;;5.93;100.00
55916;BME280;41826;53.246;-6.670;2023-03-03T03:30:51;101291.88;;;5.92;100.00
55916;BME280;41826;53.246;-6.670;2023-03-03T03:33:16;101280.56;;;5.79;100.00
55916;BME280;41826;53.246;-6.670;2023-03-03T03:35:42;101274.97;;;5.43;100.00
55916;BME280;41826;53.246;-6.670;2023-03-03T03:38:11;101281.25;;;5.27;100.00
55916;BME280;41826;53.246;-6.670;2023-03-03T03:40:36;101306.28;;;5.56;100.00
55916;BME280;41826;53.246;-6.670;2023-03-03T03:43:02;101317.91;;;5.65;100.00
55916;BME280;41826;53.246;-6.670;2023-03-03T03:45:27;101334.72;;;5.74;100.00
55916;BME280;41826;53.246;-6.670;2023-03-03T03:47:54;101339.03;;;5.75;100.00
55916;BME280;41826;53.246;-6.670;2023-03-03T03:50:19;101308.47;;;5.50;100.00
55916;BME280;41826;53.246;-6.670;2023-03-03T03:52:45;101315.53;;;5.33;100.00
55916;BME280;41826;53.246;-6.670;2023-03-03T03:55:11;101373.44;;;4.94;100.00
55916;BME280;41826;53.246;-6.670;2023-03-03T03:57:36;101409.69;;;5.11;100.00
55916;BME280;41826;53.246;-6.670;2023-03-03T04:00:03;101439.19;;;5.26;100.00
55916;BME280;41826;53.246;-6.670;2023-03-03T04:02:29;101440.41;;;5.35;100.00
55916;BME280;41826;53.246;-6.670;2023-03-03T04:04:54;101434.25;;;5.21;100.00
55916;BME280;41826;53.246;-6.670;2023-03-03T04:07:20;101495.25;;;4.71;100.00
55916;BME280;41826;53.246;-6.670;2023-03-03T04:09:45;101584.94;;;4.48;100.00
55916;BME280;41826;53.246;-6.670;2023-03-03T04:12:12;101688.53;;;4.56;100.00
55916;BME280;41826;53.246;-6.670;2023-03-03T04:14:38;101730.97;;;4.90;100.00
55916;BME280;41826;53.246;-6.670;2023-03-03T04:17:04;101735.50;;;4.86;100.00
55916;BME280;41826;53.246;-6.670;2023-03-03T04:19:29;101753.75;;;5.02;100.00
55916;BME280;41826;53.246;-6.670;2023-03-03T04:21:55;101751.38;;;5.13;100.00
55916;BME280;41826;53.246;-6.670;2023-03-03T04:24:20;101728.13;;;5.26;100.00
55916;BME280;41826;53.246;-6.670;2023-03-03T04:26:45;101707.81;;;5.33;100.00
55916;BME280;41826;53.246;-6.670;2023-03-03T04:29:11;101680.94;;;5.48;100.00
55916;BME280;41826;53.246;-6.670;2023-03-03T04:31:36;101632.53;;;5.60;100.00
55916;BME280;41826;53.246;-6.670;2023-03-03T04:34:01;101584.63;;;5.62;100.00
55916;BME280;41826;53.246;-6.670;2023-03-03T04:36:27;101526.75;;;5.57;100.00
55916;BME280;41826;53.246;-6.670;2023-03-03T04:38:52;101503.84;;;5.48;100.00
55916;BME280;41826;53.246;-6.670;2023-03-03T04:41:18;101515.72;;;5.38;100.00
55916;BME280;41826;53.246;-6.670;2023-03-03T04:43:43;101502.91;;;5.49;100.00
55916;BME280;41826;53.246;-6.670;2023-03-03T04:46:09;101497.44;;;5.54;100.00
55916;BME280;41826;53.246;-6.670;2023-03-03T04:48:34;101478.94;;;5.58;100.00
55916;BME280;41826;53.246;-6.670;2023-03-03T04:51:00;101469.25;;;5.32;100.00
55916;BME280;41826;53.246;-6.670;2023-03-03T04:53:25;101547.19;;;5.19;100.00
55916;BME280;41826;53.246;-6.670;2023-03-03T04:55:52;101593.31;;;5.17;100.00
55916;BME280;41826;53.246;-6.670;2023-03-03T04:58:18;101623.53;;;5.04;100.00
55916;BME280;41826;53.246;-6.670;2023-03-03T05:00:52;101642.81;;;5.31;100.00
55916;BME280;41826;53.246;-6.670;2023-03-03T05:03:18;101607.44;;;5.43;100.00
55916;BME280;41826;53.246;-6.670;2023-03-03T05:05:45;101569.34;;;5.56;100.00
55916;BME280;41826;53.246;-6.670;2023-03-03T05:08:12;101520.78;;;5.55;100.00
55916;BME280;41826;53.246;-6.670;2023-03-03T05:10:37;101510.06;;;5.46;100.00
55916;BME280;41826;53.246;-6.670;2023-03-03T05:13:04;101489.16;;;5.61;100.00
55916;BME280;41826;53.246;-6.670;2023-03-03T05:15:30;101529.25;;;4.98;100.00
55916;BME280;41826;53.246;-6.670;2023-03-03T05:17:55;101595.13;;;5.31;100.00
55916;BME280;41826;53.246;-6.670;2023-03-03T05:20:22;101582.72;;;5.20;100.00
55916;BME280;41826;53.246;-6.670;2023-03-03T05:22:47;101596.63;;;5.35;100.00
55916;BME280;41826;53.246;-6.670;2023-03-03T05:25:12;101562.06;;;5.47;100.00
55916;BME280;41826;53.246;-6.670;2023-03-03T05:27:38;101534.00;;;5.52;100.00
55916;BME280;41826;53.246;-6.670;2023-03-03T05:30:04;101499.69;;;5.60;100.00
55916;BME280;41826;53.246;-6.670;2023-03-03T05:32:29;101471.94;;;5.59;100.00
55916;BME280;41826;53.246;-6.670;2023-03-03T05:34:55;101449.25;;;5.47;100.00
55916;BME280;41826;53.246;-6.670;2023-03-03T05:37:20;101550.97;;;5.13;100.00
55916;BME280;41826;53.246;-6.670;2023-03-03T05:39:47;101567.31;;;5.31;100.00
55916;BME280;41826;53.246;-6.670;2023-03-03T05:42:13;101559.28;;;5.50;100.00
55916;BME280;41826;53.246;-6.670;2023-03-03T05:44:38;101514.06;;;5.51;100.00
55916;BME280;41826;53.246;-6.670;2023-03-03T05:47:04;101511.06;;;5.29;100.00
55916;BME280;41826;53.246;-6.670;2023-03-03T05:49:30;101519.75;;;5.43;100.00
55916;BME280;41826;53.246;-6.670;2023-03-03T05:51:55;101520.91;;;5.24;100.00
55916;BME280;41826;53.246;-6.670;2023-03-03T05:54:20;101631.75;;;4.80;100.00
55916;BME280;41826;53.246;-6.670;2023-03-03T05:56:46;101727.97;;;5.13;100.00
55916;BME280;41826;53.246;-6.670;2023-03-03T05:59:11;101687.50;;;5.39;100.00
55916;BME280;41826;53.246;-6.670;2023-03-03T06:01:37;101646.84;;;5.37;100.00
55916;BME280;41826;53.246;-6.670;2023-03-03T06:04:02;101710.88;;;4.76;100.00
55916;BME280;41826;53.246;-6.670;2023-03-03T06:06:27;101859.44;;;4.87;100.00
55916;BME280;41826;53.246;-6.670;2023-03-03T06:08:53;101840.78;;;5.30;100.00
55916;BME280;41826;53.246;-6.670;2023-03-03T06:11:18;101771.31;;;5.46;100.00
55916;BME280;41826;53.246;-6.670;2023-03-03T06:13:44;101776.47;;;4.98;100.00
55916;BME280;41826;53.246;-6.670;2023-03-03T06:16:09;101822.84;;;5.24;100.00
55916;BME280;41826;53.246;-6.670;2023-03-03T06:18:35;101827.03;;;5.10;100.00
55916;BME280;41826;53.246;-6.670;2023-03-03T06:21:00;101805.81;;;5.34;100.00
55916;BME280;41826;53.246;-6.670;2023-03-03T06:23:26;101754.03;;;5.45;100.00
55916;BME280;41826;53.246;-6.670;2023-03-03T06:25:51;101691.34;;;5.48;100.00
55916;BME280;41826;53.246;-6.670;2023-03-03T06:28:17;101732.69;;;5.07;100.00
55916;BME280;41826;53.246;-6.670;2023-03-03T06:30:43;101865.31;;;4.91;100.00
55916;BME280;41826;53.246;-6.670;2023-03-03T06:33:09;101863.16;;;5.16;100.00
55916;BME280;41826;53.246;-6.670;2023-03-03T06:35:34;101827.66;;;5.31;100.00
55916;BME280;41826;53.246;-6.670;2023-03-03T06:38:01;101779.47;;;5.40;100.00
55916;BME280;41826;53.246;-6.670;2023-03-03T06:40:26;101712.19;;;5.48;100.00
55916;BME280;41826;53.246;-6.670;2023-03-03T06:42:51;101665.81;;;5.55;100.00
55916;BME280;41826;53.246;-6.670;2023-03-03T06:45:17;101612.59;;;5.59;100.00
55916;BME280;41826;53.246;-6.670;2023-03-03T06:47:42;101558.47;;;5.64;100.00
55916;BME280;41826;53.246;-6.670;2023-03-03T06:50:11;101523.59;;;5.67;100.00
55916;BME280;41826;53.246;-6.670;2023-03-03T06:52:37;101490.47;;;5.69;100.00
55916;BME280;41826;53.246;-6.670;2023-03-03T06:55:11;101461.91;;;5.67;100.00
55916;BME280;41826;53.246;-6.670;2023-03-03T06:57:38;101438.19;;;5.72;100.00
55916;BME280;41826;53.246;-6.670;2023-03-03T07:00:17;101421.38;;;5.77;100.00
55916;BME280;41826;53.246;-6.670;2023-03-03T07:02:45;101426.22;;;5.55;100.00
55916;BME280;41826;53.246;-6.670;2023-03-03T07:05:15;101431.78;;;5.63;100.00
55916;BME280;41826;53.246;-6.670;2023-03-03T07:07:41;101410.66;;;5.68;100.00
55916;BME280;41826;53.246;-6.670;2023-03-03T07:10:19;101401.91;;;5.69;100.00
55916;BME280;41826;53.246;-6.670;2023-03-03T07:12:46;101406.00;;;5.58;100.00
55916;BME280;41826;53.246;-6.670;2023-03-03T07:15:17;101452.66;;;5.18;100.00
55916;BME280;41826;53.246;-6.670;2023-03-03T07:17:45;101679.94;;;4.87;100.00
55916;BME280;41826;53.246;-6.670;2023-03-03T07:20:23;101694.47;;;5.23;100.00
55916;BME280;41826;53.246;-6.670;2023-03-03T07:22:48;101731.59;;;4.77;100.00
55916;BME280;41826;53.246;-6.670;2023-03-03T07:25:34;101848.94;;;5.06;100.00
55916;BME280;41826;53.246;-6.670;2023-03-03T07:30:44;101989.00;;;4.81;100.00
55916;BME280;41826;53.246;-6.670;2023-03-03T07:33:22;102037.63;;;4.97;100.00
55916;BME280;41826;53.246;-6.670;2023-03-03T07:35:50;102000.28;;;5.16;100.00
55916;BME280;41826;53.246;-6.670;2023-03-03T07:38:19;101953.50;;;5.32;100.00
55916;BME280;41826;53.246;-6.670;2023-03-03T07:40:50;101880.88;;;5.43;100.00
55916;BME280;41826;53.246;-6.670;2023-03-03T07:45:59;101757.47;;;5.46;100.00
55916;BME280;41826;53.246;-6.670;2023-03-03T07:48:31;101726.88;;;5.49;100.00
55916;BME280;41826;53.246;-6.670;2023-03-03T07:51:04;101678.47;;;5.61;100.00
55916;BME280;41826;53.246;-6.670;2023-03-03T07:53:33;101637.38;;;5.66;100.00
55916;BME280;41826;53.246;-6.670;2023-03-03T07:56:00;101693.78;;;5.51;100.00
55916;BME280;41826;53.246;-6.670;2023-03-03T07:58:37;101656.53;;;5.65;100.00
55916;BME280;41826;53.246;-6.670;2023-03-03T08:03:37;101820.03;;;5.28;100.00
55916;BME280;41826;53.246;-6.670;2023-03-03T08:06:43;101806.09;;;5.45;100.00
55916;BME280;41826;53.246;-6.670;2023-03-03T08:11:36;101753.91;;;5.47;100.00
55916;BME280;41826;53.246;-6.670;2023-03-03T08:14:09;101737.03;;;5.54;100.00
55916;BME280;41826;53.246;-6.670;2023-03-03T08:16:37;101683.25;;;5.69;100.00
55916;BME280;41826;53.246;-6.670;2023-03-03T08:19:04;101647.91;;;5.79;100.00
55916;BME280;41826;53.246;-6.670;2023-03-03T08:21:29;101602.34;;;5.86;100.00
55916;BME280;41826;53.246;-6.670;2023-03-03T08:23:56;101581.31;;;5.89;100.00
55916;BME280;41826;53.246;-6.670;2023-03-03T08:26:22;101549.13;;;5.90;100.00
55916;BME280;41826;53.246;-6.670;2023-03-03T08:28:48;101534.91;;;5.96;100.00
55916;BME280;41826;53.246;-6.670;2023-03-03T08:31:14;101526.16;;;5.97;100.00
55916;BME280;41826;53.246;-6.670;2023-03-03T08:33:41;101518.97;;;6.15;100.00
55916;BME280;41826;53.246;-6.670;2023-03-03T08:36:07;101515.63;;;6.13;100.00
55916;BME280;41826;53.246;-6.670;2023-03-03T08:38:33;101515.63;;;6.13;100.00
55916;BME280;41826;53.246;-6.670;2023-03-03T08:40:59;101518.41;;;6.24;100.00
55916;BME280;41826;53.246;-6.670;2023-03-03T08:43:24;101522.31;;;6.17;100.00
55916;BME280;41826;53.246;-6.670;2023-03-03T08:45:52;101562.53;;;6.13;100.00
55916;BME280;41826;53.246;-6.670;2023-03-03T08:48:19;101543.19;;;6.17;100.00
55916;BME280;41826;53.246;-6.670;2023-03-03T08:50:45;101536.13;;;6.19;100.00
55916;BME280;41826;53.246;-6.670;2023-03-03T08:53:12;101521.56;;;6.15;100.00
55916;BME280;41826;53.246;-6.670;2023-03-03T08:55:38;101527.34;;;6.20;100.00
55916;BME280;41826;53.246;-6.670;2023-03-03T08:58:03;101542.63;;;6.12;100.00
55916;BME280;41826;53.246;-6.670;2023-03-03T09:00:29;101603.69;;;6.07;100.00
55916;BME280;41826;53.246;-6.670;2023-03-03T09:02:54;101786.09;;;5.46;100.00
55916;BME280;41826;53.246;-6.670;2023-03-03T09:05:21;101998.50;;;5.16;100.00
55916;BME280;41826;53.246;-6.670;2023-03-03T09:07:47;102114.94;;;5.49;100.00
55916;BME280;41826;53.246;-6.670;2023-03-03T09:10:15;102199.56;;;5.40;100.00
55916;BME280;41826;53.246;-6.670;2023-03-03T09:12:46;102230.16;;;5.91;100.00
55916;BME280;41826;53.246;-6.670;2023-03-03T09:17:40;102181.94;;;5.99;100.00
55916;BME280;41826;53.246;-6.670;2023-03-03T09:20:40;102188.50;;;5.89;100.00
55916;BME280;41826;53.246;-6.670;2023-03-03T09:25:54;102393.81;;;5.05;100.00
55916;BME280;41826;53.246;-6.670;2023-03-03T09:28:29;102504.72;;;5.50;100.00
55916;BME280;41826;53.246;-6.670;2023-03-03T09:30:59;102539.75;;;5.22;100.00
55916;BME280;41826;53.246;-6.670;2023-03-03T09:35:53;102676.53;;;5.09;100.00
55916;BME280;41826;53.246;-6.670;2023-03-03T09:38:43;102743.53;;;5.04;100.00
55916;BME280;41826;53.246;-6.670;2023-03-03T09:58:39;103100.25;;;5.01;100.00
55916;BME280;41826;53.246;-6.670;2023-03-03T10:10:05;103236.91;;;5.16;100.00
55916;BME280;41826;53.246;-6.670;2023-03-03T10:12:41;103215.31;;;5.12;100.00
55916;BME280;41826;53.246;-6.670;2023-03-03T10:15:38;103218.66;;;5.17;100.00
55916;BME280;41826;53.246;-6.670;2023-03-03T10:18:11;103223.38;;;5.05;100.00
55916;BME280;41826;53.246;-6.670;2023-03-03T10:21:03;103206.84;;;5.06;100.00
55916;BME280;41826;53.246;-6.670;2023-03-03T10:49:48;103009.00;;;5.31;100.00
55916;BME280;41826;53.246;-6.670;2023-03-03T10:52:36;102995.81;;;5.37;100.00
55916;BME280;41826;53.246;-6.670;2023-03-03T10:55:16;102937.75;;;5.57;100.00
55916;BME280;41826;53.246;-6.670;2023-03-03T11:00:51;102838.25;;;5.71;100.00
55916;BME280;41826;53.246;-6.670;2023-03-03T11:14:12;102435.66;;;6.00;100.00
55916;BME280;41826;53.246;-6.670;2023-03-03T11:33:19;101808.78;;;6.07;100.00
55916;BME280;41826;53.246;-6.670;2023-03-03T11:35:54;101719.19;;;5.94;100.00
55916;BME280;41826;53.246;-6.670;2023-03-03T11:40:54;101607.78;;;5.97;100.00
55916;BME280;41826;53.246;-6.670;2023-03-03T11:43:29;101573.81;;;5.99;100.00
55916;BME280;41826;53.246;-6.670;2023-03-03T11:46:07;101571.69;;;6.05;100.00
55916;BME280;41826;53.246;-6.670;2023-03-03T11:48:53;101594.75;;;5.97;100.00
55916;BME280;41826;53.246;-6.670;2023-03-03T11:54:12;101696.34;;;5.67;100.00
55916;BME280;41826;53.246;-6.670;2023-03-03T11:56:42;101753.50;;;5.70;100.00
55916;BME280;41826;53.246;-6.670;2023-03-03T12:02:02;101889.47;;;5.61;100.00
55916;BME280;41826;53.246;-6.670;2023-03-03T12:04:38;101944.47;;;5.72;100.00
55916;BME280;41826;53.246;-6.670;2023-03-03T12:12:43;101991.88;;;5.61;100.00
55916;BME280;41826;53.246;-6.670;2023-03-03T12:15:29;102040.28;;;5.83;100.00
55916;BME280;41826;53.246;-6.670;2023-03-03T12:21:01;102120.53;;;5.76;100.00
55916;BME280;41826;53.246;-6.670;2023-03-03T12:26:16;102067.25;;;5.99;100.00
55916;BME280;41826;53.246;-6.670;2023-03-03T12:28:57;102018.84;;;5.95;100.00
55916;BME280;41826;53.246;-6.670;2023-03-03T12:34:27;101951.56;;;6.49;100.00
55916;BME280;41826;53.246;-6.670;2023-03-03T12:42:37;101880.59;;;6.13;100.00
55916;BME280;41826;53.246;-6.670;2023-03-03T12:48:00;101844.59;;;6.19;100.00
55916;BME280;41826;53.246;-6.670;2023-03-03T12:56:08;101794.53;;;5.98;100.00
55916;BME280;41826;53.246;-6.670;2023-03-03T12:58:51;101779.19;;;5.92;100.00
55916;BME280;41826;53.246;-6.670;2023-03-03T13:04:22;101910.47;;;5.58;100.00
55916;BME280;41826;53.246;-6.670;2023-03-03T13:10:02;102133.16;;;5.32;100.00
55916;BME280;41826;53.246;-6.670;2023-03-03T13:12:46;102225.34;;;5.28;100.00
55916;BME280;41826;53.246;-6.670;2023-03-03T13:18:19;102358.13;;;5.28;100.00
55916;BME280;41826;53.246;-6.670;2023-03-03T13:23:38;102446.28;;;5.37;100.00
55916;BME280;41826;53.246;-6.670;2023-03-03T13:32:23;102578.28;;;5.14;100.00
55916;BME280;41826;53.246;-6.670;2023-03-03T13:35:08;102622.81;;;5.29;100.00
55916;BME280;41826;53.246;-6.670;2023-03-03T13:37:45;102630.84;;;5.00;100.00
55916;BME280;41826;53.246;-6.670;2023-03-03T13:40:35;102660.34;;;5.01;100.00
55916;BME280;41826;53.246;-6.670;2023-03-03T13:46:17;102662.34;;;5.16;100.00
55916;BME280;41826;53.246;-6.670;2023-03-03T13:52:08;102623.00;;;5.02;100.00
55916;BME280;41826;53.246;-6.670;2023-03-03T14:00:15;102580.91;;;5.35;100.00
55916;BME280;41826;53.246;-6.670;2023-03-03T14:05:40;102508.16;;;5.51;100.00
55916;BME280;41826;53.246;-6.670;2023-03-03T14:13:28;102384.72;;;5.55;100.00
55916;BME280;41826;53.246;-6.670;2023-03-03T14:16:08;102366.53;;;5.91;100.00
55916;BME280;41826;53.246;-6.670;2023-03-03T14:21:28;102221.06;;;5.99;100.00
55916;BME280;41826;53.246;-6.670;2023-03-03T14:26:21;102131.34;;;5.86;100.00
55916;BME280;41826;53.246;-6.670;2023-03-03T14:28:48;102091.41;;;6.03;100.00
55916;BME280;41826;53.246;-6.670;2023-03-03T14:31:26;102012.34;;;6.02;100.00
55916;BME280;41826;53.246;-6.670;2023-03-03T14:34:13;101980.41;;;6.15;100.00
55916;BME280;41826;53.246;-6.670;2023-03-03T14:36:42;101927.81;;;5.91;100.00
55916;BME280;41826;53.246;-6.670;2023-03-03T14:39:31;101925.50;;;6.02;100.00
55916;BME280;41826;53.246;-6.670;2023-03-03T14:41:57;101927.09;;;6.04;100.00
55916;BME280;41826;53.246;-6.670;2023-03-03T14:44:27;101940.72;;;6.10;100.00
55916;BME280;41826;53.246;-6.670;2023-03-03T14:49:37;101961.41;;;5.97;100.00
55916;BME280;41826;53.246;-6.670;2023-03-03T14:54:41;101939.63;;;6.14;100.00
55916;BME280;41826;53.246;-6.670;2023-03-03T14:57:59;101879.22;;;6.37;100.00
55916;BME280;41826;53.246;-6.670;2023-03-03T15:03:17;101732.03;;;6.27;100.00
55916;BME280;41826;53.246;-6.670;2023-03-03T15:05:49;101686.41;;;6.34;100.00
55916;BME280;41826;53.246;-6.670;2023-03-03T15:08:14;101613.78;;;6.28;100.00
55916;BME280;41826;53.246;-6.670;2023-03-03T15:10:44;101577.88;;;6.60;100.00
55916;BME280;41826;53.246;-6.670;2023-03-03T15:18:25;101488.06;;;6.23;100.00
55916;BME280;41826;53.246;-6.670;2023-03-03T15:21:14;101467.75;;;6.28;100.00
55916;BME280;41826;53.246;-6.670;2023-03-03T15:33:46;101321.81;;;6.14;100.00
55916;BME280;41826;53.246;-6.670;2023-03-03T15:36:37;101305.94;;;6.17;100.00
55916;BME280;41826;53.246;-6.670;2023-03-03T15:39:26;101298.59;;;5.82;100.00
55916;BME280;41826;53.246;-6.670;2023-03-03T15:42:01;101310.88;;;5.94;100.00
55916;BME280;41826;53.246;-6.670;2023-03-03T15:52:44;101367.69;;;5.60;100.00
55916;BME280;41826;53.246;-6.670;2023-03-03T16:00:52;101342.41;;;5.48;100.00
55916;BME280;41826;53.246;-6.670;2023-03-03T16:03:30;101350.75;;;5.53;100.00
55916;BME280;41826;53.246;-6.670;2023-03-03T16:06:15;101328.75;;;5.86;100.00
55916;BME280;41826;53.246;-6.670;2023-03-03T16:11:33;101254.13;;;6.12;100.00
55916;BME280;41826;53.246;-6.670;2023-03-03T16:16:50;101284.56;;;6.12;100.00
55916;BME280;41826;53.246;-6.670;2023-03-03T16:19:48;101278.78;;;6.34;100.00
55916;BME280;41826;53.246;-6.670;2023-03-03T16:22:32;101255.19;;;6.22;100.00
55916;BME280;41826;53.246;-6.670;2023-03-03T16:28:09;101148.03;;;5.87;100.00
55916;BME280;41826;53.246;-6.670;2023-03-03T16:31:00;101120.66;;;6.07;100.00
55916;BME280;41826;53.246;-6.670;2023-03-03T16:38:57;101011.63;;;5.88;100.00
55916;BME280;41826;53.246;-6.670;2023-03-03T16:41:44;101016.38;;;6.20;100.00
55916;BME280;41826;53.246;-6.670;2023-03-03T16:47:05;100994.63;;;5.70;100.00
55916;BME280;41826;53.246;-6.670;2023-03-03T16:49:43;101027.34;;;5.86;100.00
55916;BME280;41826;53.246;-6.670;2023-03-03T16:52:24;101027.25;;;5.88;100.00
55916;BME280;41826;53.246;-6.670;2023-03-03T16:54:56;101031.28;;;5.54;100.00
55916;BME280;41826;53.246;-6.670;2023-03-03T17:00:28;101030.16;;;6.22;100.00
55916;BME280;41826;53.246;-6.670;2023-03-03T17:03:34;101016.72;;;6.02;100.00
55916;BME280;41826;53.246;-6.670;2023-03-03T17:06:10;101014.13;;;6.02;100.00
55916;BME280;41826;53.246;-6.670;2023-03-03T17:11:34;101072.88;;;5.81;100.00